Time;durP1;ratioP1;P1;durP2;ratioP2;P2;SDS_P1;SDS_P2;PMS_P1;PMS_P2;Temp;Humidity;BMP_temperature;BMP_pressure;BME280_temperature;BME280_humidity;BME280_pressure;Samples;Min_cycle;Max_cycle;Signal;HPM_P1;HPM_P2
2023/08/21 00:59:47;;;;;;;0.32;0.20;;;24.50;64.40;;;;;;7502900;23;19999;-56
2023/08/21 01:02:50;;;;;;;0.10;0.10;;;24.40;64.90;;;;;;6136280;28;20067;-56
2023/08/21 01:05:51;;;;;;;0.20;0.20;;;24.60;65.00;;;;;;6144698;29;20045;-54
2023/08/21 01:08:57;;;;;;;0.65;0.20;;;24.60;64.50;;;;;;6135620;28;20063;-56
2023/08/21 01:12:09;;;;;;;0.30;0.20;;;24.50;64.90;;;;;;6140988;28;20525;-55
2023/08/21 01:15:13;;;;;;;0.15;0.15;;;24.90;65.10;;;;;;6136557;29;20036;-55
2023/08/21 01:18:16;;;;;;;0.40;0.20;;;24.70;65.00;;;;;;6142036;28;20054;-55
2023/08/21 01:21:19;;;;;;;0.50;0.30;;;24.90;65.10;;;;;;6143704;28;20036;-56
2023/08/21 01:24:21;;;;;;;0.20;0.20;;;24.80;65.10;;;;;;6141439;28;20039;-57
2023/08/21 01:27:23;;;;;;;0.40;0.15;;;24.50;65.50;;;;;;6136137;29;20039;-56
2023/08/21 01:30:25;;;;;;;0.20;0.20;;;24.90;66.10;;;;;;6140353;29;20035;-58
2023/08/21 01:33:30;;;;;;;0.50;0.28;;;24.60;65.10;;;;;;6141800;28;20074;-58
2023/08/21 01:36:32;;;;;;;0.20;0.10;;;24.70;65.20;;;;;;6136558;29;20050;-56
2023/08/21 01:39:35;;;;;;;0.20;0.20;;;24.70;63.80;;;;;;6142812;28;20043;-57
2023/08/21 01:42:40;;;;;;;0.20;0.17;;;24.80;65.40;;;;;;6141556;29;20055;-57
2023/08/21 01:45:45;;;;;;;0.70;0.30;;;24.60;62.60;;;;;;6127184;29;20807;-57
2023/08/21 01:48:48;;;;;;;0.20;0.20;;;24.50;65.20;;;;;;6133285;29;20425;-54
2023/08/21 01:51:49;;;;;;;0.13;0.10;;;24.90;65.50;;;;;;6138054;28;20047;-57
2023/08/21 01:54:52;;;;;;;0.10;0.10;;;24.80;65.60;;;;;;6140732;28;20572;-56
2023/08/21 01:57:53;;;;;;;0.10;0.10;;;24.40;65.40;;;;;;6142400;28;20417;-56
2023/08/21 02:00:58;;;;;;;0.10;0.10;;;24.60;65.60;;;;;;6132097;28;20043;-57
2023/08/21 02:04:01;;;;;;;0.47;0.20;;;24.70;65.70;;;;;;6142327;29;20043;-56
2023/08/21 02:07:03;;;;;;;0.25;0.10;;;24.30;65.50;;;;;;6140927;29;20094;-55
2023/08/21 02:10:07;;;;;;;0.60;0.20;;;25.00;65.90;;;;;;6135929;29;20054;-57
2023/08/21 02:13:08;;;;;;;0.30;0.30;;;24.90;66.20;;;;;;6136081;28;20043;-54
2023/08/21 02:16:10;;;;;;;0.73;0.20;;;24.60;65.80;;;;;;6138193;29;20047;-55
2023/08/21 02:19:12;;;;;;;0.10;0.10;;;24.50;65.80;;;;;;6142577;29;20494;-55
2023/08/21 02:22:14;;;;;;;0.28;0.20;;;24.70;65.80;;;;;;6132227;29;20037;-56
2023/08/21 02:25:16;;;;;;;0.25;0.20;;;24.70;65.90;;;;;;6144174;28;20430;-56
2023/08/21 02:28:17;;;;;;;0.10;0.10;;;24.20;65.50;;;;;;6146021;29;20423;-57
2023/08/21 02:31:19;;;;;;;0.35;0.20;;;24.60;65.90;;;;;;6143433;28;20066;-56
2023/08/21 02:34:21;;;;;;;0.10;0.10;;;24.70;65.50;;;;;;6136091;28;20112;-56
2023/08/21 02:37:22;;;;;;;0.28;0.22;;;24.70;66.10;;;;;;6122342;29;20471;-54
2023/08/21 02:40:25;;;;;;;0.10;0.10;;;24.60;65.90;;;;;;6126685;28;20039;-56
2023/08/21 02:43:26;;;;;;;0.30;0.30;;;24.50;66.00;;;;;;6125296;28;20062;-54
2023/08/21 02:46:29;;;;;;;0.17;0.17;;;24.60;66.00;;;;;;6125316;28;20043;-55
2023/08/21 02:49:34;;;;;;;0.10;0.10;;;24.20;65.90;;;;;;6123616;29;20317;-56
2023/08/21 02:52:36;;;;;;;0.50;0.20;;;24.50;66.40;;;;;;6125955;28;20050;-55
2023/08/21 02:55:39;;;;;;;0.17;0.17;;;24.60;66.20;;;;;;6121848;29;20046;-53
2023/08/21 02:58:40;;;;;;;0.25;0.10;;;24.50;66.10;;;;;;6126132;28;20050;-54
2023/08/21 03:01:42;;;;;;;0.20;0.20;;;24.40;66.20;;;;;;6126386;29;20091;-55
2023/08/21 03:04:43;;;;;;;0.10;0.10;;;24.50;66.70;;;;;;6122982;29;20093;-54
2023/08/21 03:07:45;;;;;;;0.20;0.20;;;24.50;66.30;;;;;;6126403;29;20414;-53
2023/08/21 03:10:47;;;;;;;0.10;0.10;;;24.40;66.70;;;;;;6125179;28;20039;-57
2023/08/21 03:13:50;;;;;;;0.20;0.10;;;23.20;65.90;;;;;;6124149;28;20454;-57
2023/08/21 03:16:53;;;;;;;0.20;0.20;;;24.60;66.50;;;;;;6123957;28;20039;-50
2023/08/21 03:23:10;;;;;;;0.85;0.30;;;24.30;69.00;;;;;;6431968;27;20644;-55
2023/08/21 03:26:12;;;;;;;0.50;0.20;;;24.40;66.20;;;;;;6412306;27;20400;-54
2023/08/21 03:29:13;;;;;;;2.30;0.70;;;24.40;66.90;;;;;;6415890;27;20045;-56
2023/08/21 03:32:16;;;;;;;1.95;0.25;;;24.10;66.10;;;;;;6416933;27;20508;-58
2023/08/21 03:35:18;;;;;;;1.50;0.20;;;24.30;66.90;;;;;;6405449;27;20042;-57
2023/08/21 03:38:21;;;;;;;0.95;0.30;;;24.40;66.90;;;;;;6416212;27;20030;-57
2023/08/21 03:41:23;;;;;;;1.13;0.65;;;24.40;66.50;;;;;;6416999;27;20042;-56
2023/08/21 03:44:24;;;;;;;0.47;0.20;;;24.40;66.40;;;;;;6415413;27;20033;-58
2023/08/21 03:47:28;;;;;;;0.55;0.30;;;24.30;66.50;;;;;;6403082;27;20045;-57
2023/08/21 03:50:38;;;;;;;2.05;0.32;;;24.50;66.40;;;;;;6414320;27;20190;-57
2023/08/21 03:53:43;;;;;;;0.55;0.20;;;24.30;66.40;;;;;;6416056;27;20071;-58
2023/08/21 03:56:44;;;;;;;0.75;0.22;;;24.50;63.80;;;;;;6407056;27;20492;-57
2023/08/21 03:59:46;;;;;;;0.20;0.20;;;24.20;66.30;;;;;;6390243;27;20042;-58
2023/08/21 04:02:48;;;;;;;0.43;0.32;;;24.40;66.40;;;;;;6390256;27;20042;-57
2023/08/21 04:05:50;;;;;;;0.32;0.20;;;24.30;66.40;;;;;;6386074;27;20059;-58
2023/08/21 04:08:53;;;;;;;0.40;0.25;;;24.20;66.30;;;;;;6389126;27;20039;-58
2023/08/21 04:11:54;;;;;;;0.17;0.17;;;24.30;66.50;;;;;;6391635;27;20045;-58
2023/08/21 04:14:56;;;;;;;0.20;0.20;;;24.30;66.20;;;;;;6386329;27;20046;-57
2023/08/21 04:17:57;;;;;;;0.17;0.15;;;24.50;66.60;;;;;;6384348;27;20050;-58
2023/08/21 04:20:59;;;;;;;1.05;0.20;;;24.30;66.40;;;;;;6388577;27;20103;-57
2023/08/21 04:24:01;;;;;;;0.60;0.30;;;24.20;66.40;;;;;;6369734;27;20041;-58
2023/08/21 04:27:03;;;;;;;0.20;0.10;;;24.50;66.50;;;;;;6385439;27;20454;-57
2023/08/21 04:30:05;;;;;;;0.20;0.20;;;24.50;66.90;;;;;;6386846;27;20046;-55
2023/08/21 04:33:11;;;;;;;0.32;0.28;;;24.50;66.90;;;;;;6372041;27;20035;-58
2023/08/21 04:36:16;;;;;;;0.63;0.20;;;24.30;66.70;;;;;;6367619;27;20516;-57
2023/08/21 04:39:24;;;;;;;0.10;0.10;;;24.50;66.80;;;;;;6349327;27;20038;-55
2023/08/21 04:42:26;;;;;;;0.50;0.30;;;24.40;66.60;;;;;;6373206;27;20039;-56
2023/08/21 04:45:29;;;;;;;0.20;0.17;;;24.30;66.90;;;;;;6368247;27;20076;-57
2023/08/21 04:48:31;;;;;;;0.13;0.13;;;24.40;66.60;;;;;;6355599;27;20050;-57
2023/08/21 04:51:32;;;;;;;0.20;0.20;;;24.20;66.90;;;;;;6364055;27;20043;-56
2023/08/21 04:54:37;;;;;;;0.17;0.17;;;24.30;66.50;;;;;;6363067;27;20026;-58
2023/08/21 04:57:42;;;;;;;0.15;0.10;;;24.70;67.00;;;;;;6372532;27;20298;-56
2023/08/21 05:00:46;;;;;;;0.20;0.20;;;24.40;66.40;;;;;;6367174;27;20026;-57
2023/08/21 05:03:48;;;;;;;0.20;0.20;;;24.00;66.10;;;;;;6358063;27;20035;-57
2023/08/21 05:06:50;;;;;;;0.10;0.10;;;24.20;66.10;;;;;;6353540;27;20558;-57
2023/08/21 05:09:55;;;;;;;0.30;0.25;;;24.10;66.70;;;;;;6359200;27;20098;-57
2023/08/21 05:13:00;;;;;;;0.60;0.20;;;24.40;64.10;;;;;;6360086;27;20030;-57
2023/08/21 05:16:02;;;;;;;0.20;0.20;;;24.30;66.40;;;;;;6355965;27;20061;-54
2023/08/21 05:19:08;;;;;;;0.22;0.20;;;23.20;65.80;;;;;;6353303;27;20324;-55
2023/08/21 05:22:10;;;;;;;0.10;0.10;;;24.30;66.30;;;;;;6355328;27;20070;-57
2023/08/21 05:25:15;;;;;;;0.20;0.20;;;24.20;66.40;;;;;;6359774;27;20085;-56
2023/08/21 05:28:16;;;;;;;0.28;0.28;;;24.40;67.00;;;;;;6367064;27;20049;-56
2023/08/21 05:31:24;;;;;;;0.10;0.10;;;24.30;66.50;;;;;;6367849;27;20042;-57
2023/08/21 05:34:29;;;;;;;0.17;0.17;;;24.10;65.00;;;;;;6359050;27;20107;-57
2023/08/21 05:37:31;;;;;;;0.22;0.20;;;24.30;66.50;;;;;;6367138;27;20038;-56
2023/08/21 05:40:33;;;;;;;0.20;0.20;;;24.30;66.80;;;;;;6363961;27;20031;-55
2023/08/21 05:43:36;;;;;;;0.15;0.15;;;24.20;66.40;;;;;;6341960;27;20038;-55
2023/08/21 05:46:38;;;;;;;0.10;0.10;;;24.30;66.80;;;;;;6367347;27;20083;-57
2023/08/21 05:49:40;;;;;;;0.20;0.17;;;23.80;66.30;;;;;;6362447;27;20042;-55
2023/08/21 05:52:42;;;;;;;0.17;0.17;;;24.20;66.10;;;;;;6358588;27;20045;-54
2023/08/21 05:55:45;;;;;;;0.20;0.20;;;24.30;67.00;;;;;;6362498;27;20035;-56
2023/08/21 05:58:49;;;;;;;0.10;0.10;;;23.70;66.00;;;;;;6342965;27;20033;-56
2023/08/21 06:01:51;;;;;;;0.10;0.10;;;24.30;67.00;;;;;;6341030;27;20027;-55
2023/08/21 06:04:53;;;;;;;0.32;0.32;;;24.30;67.30;;;;;;6342733;27;20037;-56
2023/08/21 06:07:58;;;;;;;0.13;0.13;;;23.80;66.60;;;;;;6376553;27;20516;-56
2023/08/21 06:11:00;;;;;;;1.17;0.40;;;24.20;66.40;;;;;;6386726;27;20046;-56
2023/08/21 06:14:03;;;;;;;1.30;0.40;;;24.20;66.40;;;;;;6368660;27;20106;-55
2023/08/21 06:17:06;;;;;;;0.73;0.57;;;24.00;66.80;;;;;;6372516;27;20692;-54
2023/08/21 06:20:08;;;;;;;0.82;0.60;;;24.10;66.50;;;;;;6358469;27;20033;-54
2023/08/21 06:23:11;;;;;;;0.60;0.32;;;24.10;66.30;;;;;;6311879;27;20110;-55
2023/08/21 06:26:14;;;;;;;0.60;0.40;;;23.70;66.30;;;;;;6355309;27;20041;-56
2023/08/21 06:29:16;;;;;;;0.50;0.40;;;23.80;66.50;;;;;;6375931;27;20091;-57
2023/08/21 06:32:20;;;;;;;0.65;0.60;;;24.20;67.30;;;;;;6366643;27;20038;-56
2023/08/21 06:35:23;;;;;;;0.88;0.50;;;23.90;67.20;;;;;;6355522;27;20049;-56
2023/08/21 06:38:25;;;;;;;0.40;0.30;;;24.00;66.60;;;;;;6371187;27;20055;-56
2023/08/21 06:41:29;;;;;;;1.15;0.40;;;24.20;66.70;;;;;;6364824;27;20074;-55
2023/08/21 06:44:33;;;;;;;0.75;0.30;;;24.20;67.40;;;;;;6369809;27;20567;-57
2023/08/21 06:47:34;;;;;;;3.58;0.70;;;23.80;66.50;;;;;;6349491;27;20594;-56
2023/08/21 06:50:39;;;;;;;1.73;0.50;;;24.10;67.80;;;;;;6373577;27;20075;-54
2023/08/21 06:53:40;;;;;;;2.38;0.60;;;24.00;66.90;;;;;;6368790;27;20385;-57
2023/08/21 06:56:43;;;;;;;2.22;0.70;;;24.20;67.30;;;;;;6356118;27;20406;-56
2023/08/21 06:59:44;;;;;;;1.58;0.45;;;24.00;67.10;;;;;;6361902;27;20297;-55
2023/08/21 07:02:46;;;;;;;4.57;0.70;;;24.00;67.40;;;;;;6351232;27;20059;-58
2023/08/21 07:05:55;;;;;;;1.58;0.60;;;24.00;67.30;;;;;;6335627;27;20576;-55
2023/08/21 07:08:56;;;;;;;1.92;0.80;;;24.00;67.60;;;;;;6305465;27;20034;-54
2023/08/21 07:11:59;;;;;;;1.52;0.50;;;23.50;67.60;;;;;;6361214;27;20038;-55
2023/08/21 07:15:00;;;;;;;1.65;0.70;;;24.10;67.80;;;;;;6346053;27;20447;-58
2023/08/21 07:18:43;;;;;;;1.05;0.68;;;24.10;67.40;;;;;;6651752;22;20027;-93
2023/08/21 07:27:24;;;;;;;2.40;0.80;;;21.90;64.90;;;;;;6343204;22;20055;-57
2023/08/21 07:30:26;;;;;;;2.63;0.70;;;24.00;67.50;;;;;;6274964;28;20051;-60
2023/08/21 07:33:29;;;;;;;2.63;0.98;;;23.90;68.00;;;;;;6296926;28;20043;-52
2023/08/21 07:36:32;;;;;;;4.50;1.23;;;23.70;68.90;;;;;;6293892;28;20037;-55
2023/08/21 07:42:58;;;;;;;3.33;0.90;;;24.40;82.60;;;;;;7601963;22;20259;-58
2023/08/21 07:46:03;;;;;;;2.45;0.93;;;24.10;68.00;;;;;;6262833;28;20081;-57
2023/08/21 07:49:05;;;;;;;4.28;1.00;;;24.20;67.90;;;;;;6243724;28;20053;-57
2023/08/21 07:52:06;;;;;;;2.28;0.90;;;24.00;68.00;;;;;;6249235;28;20040;-58
2023/08/21 07:55:08;;;;;;;2.63;1.48;;;24.10;67.90;;;;;;6218410;28;20042;-58
2023/08/21 07:58:11;;;;;;;5.72;1.25;;;24.30;67.70;;;;;;6236124;28;20064;-59
2023/08/21 08:01:12;;;;;;;3.75;1.38;;;23.90;67.60;;;;;;6197310;28;20600;-58
2023/08/21 08:04:14;;;;;;;4.20;0.75;;;24.00;67.60;;;;;;6194827;28;20034;-59
2023/08/21 08:07:18;;;;;;;3.40;1.05;;;24.10;67.90;;;;;;6207161;28;20034;-59
2023/08/21 08:10:20;;;;;;;5.60;1.10;;;24.30;68.00;;;;;;6206864;28;20036;-58
2023/08/21 08:13:22;;;;;;;4.80;1.23;;;24.10;67.80;;;;;;6199743;28;20037;-58
2023/08/21 08:16:23;;;;;;;2.60;0.75;;;24.20;68.30;;;;;;6205668;28;20417;-58
2023/08/21 08:19:28;;;;;;;4.18;1.10;;;24.20;67.90;;;;;;6214167;28;20041;-58
2023/08/21 08:22:30;;;;;;;4.10;0.82;;;24.50;67.90;;;;;;6225421;28;20071;-56
2023/08/21 08:25:33;;;;;;;2.65;1.40;;;24.40;67.60;;;;;;6244707;28;20041;-58
2023/08/21 08:28:35;;;;;;;4.95;1.20;;;24.30;68.20;;;;;;6207660;28;20063;-57
2023/08/21 08:31:38;;;;;;;3.03;1.00;;;24.40;68.30;;;;;;6210019;28;20264;-58
2023/08/21 08:34:46;;;;;;;3.75;0.73;;;24.30;67.80;;;;;;6248643;28;20625;-58
2023/08/21 08:37:47;;;;;;;1.95;0.50;;;24.60;67.50;;;;;;6224419;28;20056;-58
2023/08/21 08:40:51;;;;;;;0.90;0.50;;;24.50;67.40;;;;;;6238791;28;20057;-58
2023/08/21 08:43:56;;;;;;;2.28;1.02;;;24.50;68.00;;;;;;6223941;28;20107;-58
2023/08/21 08:46:59;;;;;;;0.75;0.47;;;24.50;67.70;;;;;;6221905;28;20045;-59
2023/08/21 08:50:06;;;;;;;0.70;0.43;;;24.50;67.80;;;;;;6237079;28;20038;-57
2023/08/21 08:53:08;;;;;;;3.53;0.50;;;24.50;64.70;;;;;;6229008;28;20033;-58
2023/08/21 08:56:18;;;;;;;1.35;0.30;;;24.40;67.00;;;;;;6228589;28;20033;-52
2023/08/21 08:59:20;;;;;;;1.15;0.52;;;24.60;67.20;;;;;;6263208;28;20029;-54
2023/08/21 09:02:23;;;;;;;3.15;0.60;;;24.50;67.10;;;;;;6246660;28;20064;-54
2023/08/21 09:05:24;;;;;;;0.65;0.38;;;24.40;66.80;;;;;;6213687;28;20037;-56
2023/08/21 09:08:26;;;;;;;0.55;0.30;;;24.30;66.60;;;;;;6226510;28;20033;-55
2023/08/21 09:11:27;;;;;;;0.88;0.30;;;24.50;66.90;;;;;;6222018;28;20041;-53
2023/08/21 09:14:30;;;;;;;0.63;0.30;;;24.50;66.50;;;;;;6245710;28;20143;-53
2023/08/21 09:17:33;;;;;;;0.40;0.32;;;24.80;66.80;;;;;;6236100;28;20068;-52
2023/08/21 09:20:36;;;;;;;0.35;0.20;;;24.80;66.10;;;;;;6236887;28;20033;-52
2023/08/21 09:23:38;;;;;;;1.58;0.30;;;24.80;66.10;;;;;;6226355;28;20037;-55
2023/08/21 09:26:40;;;;;;;0.63;0.40;;;24.70;65.90;;;;;;6247983;28;20132;-53
2023/08/21 09:29:42;;;;;;;0.93;0.47;;;24.70;66.00;;;;;;7280567;22;21351;-51
2023/08/21 09:32:55;;;;;;;2.03;0.90;;;24.70;66.00;;;;;;6203467;28;20067;-54
2023/08/21 09:35:56;;;;;;;0.95;0.45;;;24.70;66.70;;;;;;6224229;28;20127;-59
2023/08/21 09:38:58;;;;;;;0.90;0.50;;;24.70;66.30;;;;;;6249550;28;20040;-59
2023/08/21 09:42:01;;;;;;;1.58;0.60;;;25.10;66.50;;;;;;6257616;28;20029;-57
2023/08/21 09:45:05;;;;;;;1.88;0.60;;;24.80;66.10;;;;;;6210805;28;20037;-59
2023/08/21 09:48:07;;;;;;;0.40;0.40;;;24.70;65.90;;;;;;6176146;28;20112;-58
2023/08/21 09:51:09;;;;;;;1.02;0.40;;;25.10;67.20;;;;;;6194548;28;20116;-57
2023/08/21 09:54:11;;;;;;;0.60;0.32;;;24.90;66.40;;;;;;6185562;28;20041;-58
2023/08/21 09:57:14;;;;;;;1.45;0.40;;;24.80;65.90;;;;;;6161156;28;20025;-57
2023/08/21 10:00:20;;;;;;;1.02;0.30;;;24.70;66.10;;;;;;6156959;28;20033;-57
2023/08/21 10:03:23;;;;;;;0.77;0.30;;;24.80;66.50;;;;;;6192652;28;20580;-59
2023/08/21 10:06:25;;;;;;;1.42;0.40;;;24.90;65.90;;;;;;6175941;28;20134;-54
2023/08/21 10:09:28;;;;;;;0.80;0.38;;;25.20;65.80;;;;;;6184003;28;20132;-59
2023/08/21 10:12:30;;;;;;;1.42;0.35;;;24.90;65.40;;;;;;6191381;28;20053;-59
2023/08/21 10:15:33;;;;;;;0.68;0.30;;;24.80;65.30;;;;;;6180954;28;20037;-58
2023/08/21 10:18:37;;;;;;;0.85;0.40;;;25.10;64.80;;;;;;6206097;28;20048;-58
2023/08/21 10:21:39;;;;;;;0.63;0.38;;;25.10;64.70;;;;;;6229160;28;20046;-58
2023/08/21 10:24:41;;;;;;;0.68;0.30;;;25.30;64.70;;;;;;6171307;28;20045;-59
2023/08/21 10:27:43;;;;;;;1.20;0.20;;;25.10;65.10;;;;;;6165729;28;20100;-59
2023/08/21 10:30:45;;;;;;;0.52;0.30;;;25.10;64.70;;;;;;6163446;28;20091;-59
2023/08/21 10:33:48;;;;;;;0.70;0.30;;;25.30;64.40;;;;;;6198395;28;20050;-59
2023/08/21 10:37:07;;;;;;;0.82;0.40;;;24.90;64.00;;;;;;6190589;28;20944;-60
2023/08/21 10:40:24;;;;;;;0.65;0.30;;;25.30;64.70;;;;;;6186659;28;20069;-59
2023/08/21 10:43:37;;;;;;;0.50;0.20;;;25.20;64.00;;;;;;6192231;28;20740;-60
2023/08/21 10:46:51;;;;;;;0.52;0.30;;;24.90;64.10;;;;;;6192476;28;20030;-60
2023/08/21 10:49:54;;;;;;;0.30;0.28;;;25.40;65.20;;;;;;6203873;28;20037;-59
2023/08/21 10:52:56;;;;;;;1.00;0.30;;;25.30;64.00;;;;;;6209186;28;20041;-59
2023/08/21 10:56:00;;;;;;;0.95;0.47;;;25.20;64.30;;;;;;6198252;28;20727;-60
2023/08/21 10:59:02;;;;;;;0.85;0.30;;;25.30;64.50;;;;;;6196591;28;20046;-59
2023/08/21 11:02:05;;;;;;;0.57;0.30;;;25.40;64.30;;;;;;6197915;28;20116;-60
2023/08/21 11:05:08;;;;;;;0.47;0.30;;;25.00;64.00;;;;;;6206193;28;20051;-59
2023/08/21 11:08:10;;;;;;;0.95;0.40;;;25.50;64.00;;;;;;6183921;28;20108;-59
2023/08/21 11:11:11;;;;;;;0.47;0.20;;;25.00;63.80;;;;;;6182063;28;20034;-60
2023/08/21 11:14:13;;;;;;;0.40;0.30;;;25.00;64.10;;;;;;6179766;28;20704;-60
2023/08/21 11:17:18;;;;;;;0.30;0.20;;;25.20;64.00;;;;;;6183854;28;20038;-60
2023/08/21 11:20:27;;;;;;;0.28;0.28;;;25.30;63.80;;;;;;6199510;28;20042;-59
2023/08/21 11:23:34;;;;;;;0.60;0.30;;;25.30;63.70;;;;;;6219957;28;20127;-59
2023/08/21 11:26:36;;;;;;;0.30;0.20;;;25.30;64.20;;;;;;6224630;28;20041;-62
2023/08/21 11:29:39;;;;;;;0.63;0.20;;;25.00;63.80;;;;;;6248057;28;20032;-60
2023/08/21 11:32:41;;;;;;;0.50;0.20;;;25.30;64.20;;;;;;6193101;28;20708;-59
2023/08/21 12:01:11;;;;;;;0.32;0.20;;;25.40;61.00;;;;;;7482462;23;20033;-43
2023/08/21 12:04:16;;;;;;;0.85;0.60;;;25.10;63.20;;;;;;6183447;28;20065;-46
2023/08/21 12:07:17;;;;;;;0.20;0.20;;;25.30;63.20;;;;;;6203666;28;20054;-44
2023/08/21 12:10:23;;;;;;;1.95;0.17;;;25.40;63.90;;;;;;6203679;28;20050;-42
2023/08/21 12:13:25;;;;;;;0.25;0.17;;;25.30;63.00;;;;;;6203498;28;20045;-44
2023/08/21 12:16:29;;;;;;;0.75;0.35;;;25.10;63.00;;;;;;6202365;28;20038;-42
2023/08/21 12:19:33;;;;;;;0.28;0.20;;;25.40;63.20;;;;;;6202087;28;20035;-41
2023/08/21 12:22:34;;;;;;;0.10;0.10;;;25.40;63.00;;;;;;6204151;28;20041;-41
2023/08/21 12:25:35;;;;;;;0.30;0.20;;;25.40;63.10;;;;;;6204475;28;20027;-42
2023/08/21 12:28:37;;;;;;;0.88;0.20;;;25.40;62.90;;;;;;6204968;28;20041;-43
2023/08/21 12:31:41;;;;;;;1.23;0.20;;;26.10;63.00;;;;;;6204842;28;20079;-41
2023/08/21 12:34:43;;;;;;;1.75;0.22;;;25.40;62.70;;;;;;6206231;28;20061;-40
2023/08/21 12:41:22;;;;;;;0.93;0.30;;;25.20;59.80;;;;;;6858120;23;20038;-46
2023/08/21 12:44:23;;;;;;;0.20;0.20;;;25.50;62.70;;;;;;6203301;28;20031;-48
2023/08/21 12:47:25;;;;;;;0.52;0.30;;;25.40;62.50;;;;;;6198741;28;20039;-44
2023/08/21 12:50:27;;;;;;;1.17;0.20;;;25.40;62.30;;;;;;6197320;28;20027;-47
2023/08/21 13:08:04;;;;;;;2.33;0.40;;;25.40;59.70;;;;;;6881123;23;20046;-47
2023/08/21 13:11:06;;;;;;;0.68;0.40;;;25.50;62.20;;;;;;6196060;28;20073;-48
2023/08/21 13:14:07;;;;;;;0.63;0.40;;;25.50;62.00;;;;;;6195164;28;20038;-46
2023/08/21 13:17:12;;;;;;;0.50;0.30;;;25.30;62.40;;;;;;6190833;28;20130;-48
2023/08/21 13:20:13;;;;;;;0.80;0.30;;;25.50;62.10;;;;;;6198456;28;20030;-47
2023/08/21 13:23:18;;;;;;;0.65;0.45;;;25.50;62.30;;;;;;6339117;23;20047;-46
2023/08/21 13:37:13;;;;;;;0.38;0.30;;;25.70;59.60;;;;;;6212700;23;20046;-53
2023/08/21 13:40:16;;;;;;;0.30;0.30;;;25.60;62.40;;;;;;6106215;28;20090;-52
2023/08/21 13:43:18;;;;;;;0.65;0.30;;;25.60;62.00;;;;;;6122004;28;20803;-54
2023/08/21 13:46:22;;;;;;;0.17;0.17;;;25.70;62.10;;;;;;6133753;28;20046;-58
2023/08/21 13:49:24;;;;;;;0.40;0.28;;;25.40;61.80;;;;;;6133474;28;20045;-58
2023/08/21 13:52:26;;;;;;;0.40;0.20;;;25.60;62.00;;;;;;6221447;23;20057;-58
2023/08/21 13:55:28;;;;;;;0.45;0.30;;;25.50;61.60;;;;;;6143095;28;20023;-57
2023/08/21 13:58:30;;;;;;;0.30;0.22;;;25.50;61.80;;;;;;6130320;28;20056;-57
2023/08/21 14:01:31;;;;;;;0.50;0.20;;;25.60;61.90;;;;;;6077542;28;20353;-55
2023/08/21 14:04:34;;;;;;;0.32;0.20;;;25.70;62.00;;;;;;6153464;28;20030;-56
2023/08/21 14:07:36;;;;;;;0.32;0.20;;;25.80;61.80;;;;;;6196574;28;20034;-57
2023/08/21 14:10:39;;;;;;;2.05;0.20;;;25.70;61.50;;;;;;6983073;23;20025;-57
2023/08/21 14:13:42;;;;;;;0.70;0.43;;;25.60;61.50;;;;;;6177047;28;20031;-56
2023/08/21 14:16:43;;;;;;;0.25;0.20;;;25.90;61.70;;;;;;6175855;28;20034;-56
2023/08/21 14:19:45;;;;;;;0.60;0.20;;;25.60;61.50;;;;;;6145691;28;20046;-58
2023/08/21 14:22:48;;;;;;;0.40;0.40;;;25.50;61.60;;;;;;6146729;28;20074;-55
2023/08/21 14:25:51;;;;;;;0.25;0.25;;;25.50;61.30;;;;;;6159016;28;20050;-57
2023/08/21 14:28:54;;;;;;;0.30;0.30;;;25.80;61.60;;;;;;6503970;23;20066;-56
2023/08/21 14:31:58;;;;;;;0.85;0.30;;;25.60;61.30;;;;;;6168080;28;20035;-56
2023/08/21 14:34:59;;;;;;;0.22;0.20;;;25.70;61.70;;;;;;6130943;28;20035;-59
2023/08/21 14:38:01;;;;;;;0.40;0.22;;;25.80;61.40;;;;;;6136767;28;20035;-59
2023/08/21 14:41:03;;;;;;;1.00;0.30;;;25.70;61.60;;;;;;6130675;28;20034;-60
2023/08/21 14:44:05;;;;;;;0.20;0.17;;;25.50;61.50;;;;;;6085801;28;20291;-57
2023/08/21 14:47:06;;;;;;;0.20;0.10;;;25.70;61.50;;;;;;6135093;28;20234;-54
2023/08/21 14:50:10;;;;;;;0.40;0.20;;;25.70;61.70;;;;;;6164348;28;20045;-59
2023/08/21 14:53:12;;;;;;;0.20;0.20;;;25.70;62.00;;;;;;6136956;28;20054;-58
2023/08/21 14:56:14;;;;;;;0.38;0.20;;;25.50;61.60;;;;;;6128857;28;20097;-58
2023/08/21 14:59:15;;;;;;;0.10;0.10;;;25.80;61.60;;;;;;6124091;28;20039;-59
2023/08/21 15:02:20;;;;;;;0.28;0.13;;;25.70;62.00;;;;;;6125757;28;20141;-59
2023/08/21 15:05:21;;;;;;;1.65;0.22;;;25.80;61.70;;;;;;6356090;23;21355;-58
2023/08/21 15:08:23;;;;;;;0.20;0.20;;;25.30;61.00;;;;;;6146357;28;20126;-57
2023/08/21 15:11:26;;;;;;;0.55;0.28;;;24.50;60.80;;;;;;6153913;28;20046;-58
2023/08/21 15:14:27;;;;;;;0.55;0.20;;;25.60;61.20;;;;;;6154643;28;20034;-58
2023/08/21 15:17:31;;;;;;;0.20;0.20;;;26.30;62.00;;;;;;6152215;28;20065;-60
2023/08/21 15:20:35;;;;;;;0.38;0.15;;;25.60;61.30;;;;;;6134347;28;20496;-60
2023/08/21 15:23:39;;;;;;;0.35;0.30;;;25.60;59.60;;;;;;6117487;28;20054;-61
2023/08/21 15:30:21;;;;;;;0.43;0.20;;;25.80;59.20;;;;;;6288409;23;20043;-60
2023/08/21 15:33:22;;;;;;;0.20;0.20;;;24.80;60.90;;;;;;6186009;28;20038;-58
2023/08/21 15:36:27;;;;;;;0.10;0.10;;;25.60;61.70;;;;;;6149488;28;20062;-60
2023/08/21 15:39:28;;;;;;;0.40;0.28;;;26.00;62.20;;;;;;6167488;28;20034;-60
2023/08/21 15:46:11;;;;;;;0.20;0.10;;;25.50;59.40;;;;;;6837806;23;20031;-60
2023/08/21 15:49:13;;;;;;;0.20;0.20;;;25.70;62.50;;;;;;6129336;28;20098;-61
2023/08/21 15:52:15;;;;;;;0.63;0.40;;;25.80;62.40;;;;;;6134480;28;20082;-59
